Aviation Digital Data Service (ADDS)

Output produced by TAFs form (1338 UTC 01 September 2014)
found at http://www.aviationweather.gov/adds/tafs/
 
KPOU 011140Z 0112/0212 VRB03KT P6SM OVC070 
     TEMPO 0112/0113 5SM BR 
     FM011500 24004KT P6SM BKN050 
     FM011800 22005KT P6SM VCSH BKN050 
     FM020100 00000KT P6SM SKC 
     FM020700 00000KT 3SM BR SKC